Jacksonville, North Carolina
Current Conditions -  °F | °C
As of 11:56 AM on Thursday 18 Dec 2014 (Local Time) from KNCA Reporting Station
Scattered Clouds Scattered Clouds  
Wind Chill: 52°   Ceiling: Unl
Heat Index: 52°   Visibility: 10mi
Dew Point: 30°   Wind: 5mph
Humidity: 43%   Direction: 20°NNE
Pressure: 30.14"   Gusts: NA
Location:  34.75°N, 77.42°W
Report Text: KNCA 181656Z 02004KT 10SM SCT090 11/M01 A3014 RMK AO2 SLP207 T01111011
Loading
Personal Weather Stations






























Interactive Weather Map New forecast layout! Learn more

10-Day Weather Forecast

Advertisements
Track Severe Weather on mobile